Weather at Tunoshna Airport

Public forecast

Using degrees Celsius for public forecast. Weather courtesy of forecast.io.

Current aviation weather report (METAR) for Tunoshna Airport

Report is more than 6 hours old.

Retrieved 2022/09/17 19:00 UTC (13 days ago):

UUDL 171900Z 21004MPS CAVOK 12/06 Q1002 R23/010060 NOSIG RMK QFE743

Aviation forecast (TAF) for Tunoshna Airport

Forecast is more than 12 hours old.

Retrieved 2022/09/17 18:00 UTC (13 days ago):

TAF UUDL 171652Z 1718/1818 18003G08MPS 8000 BKN040 TX15/1810Z TN07/1803Z BECMG 1810/1812 10005G10MPS